Weather observations for the past three days for
Hillsville
Imperial (Metric)
Date Time (edt) Wind (mph) Vis. (mi.) Weather Sky Cond. Temperature (ºF) Relative Humidity Wind Chill (°F) Heat Index (°F) Pressure Precipitation (in)
Air Dwpt 6 hour altimeter (in) sea level (mb) 1 hr 3 hr 6 hr
Max. Min.
05 15:55 NW 9 10.00 Fair CLR 77 64.4 65% 79 29.97 0.0
05 13:35 SW 6 10.00 Thunderstorm Light Rain BKN095 OVC110 68 64.4 88% 30.04 0.0 0.08
05 12:35 NW 21 G 33 10.00 Overcast and Breezy SCT028 BKN036 OVC070 75.2 62.6 65% 77 30.08 0.0
05 11:55 NW 9 G 17 10.00 Fair CLR 82.4 69.8 66% 86 30.05 0.0
05 11:35 NW 13 G 16 10.00 Fair CLR 82.4 69.8 66% 86 30.06 0.0
05 10:15 W 7 10.00 Fair CLR 78.8 69.8 74% 81 30.06 0.0
05 09:15 W 7 10.00 Fair CLR 77 68 74% 79 30.05 0.0
05 07:35 Calm 10.00 Fair CLR 69.8 64.4 83% 30.05 0.0
05 06:55 W 7 10.00 Fair CLR 68 64.4 88% 30.04 0.0
05 05:55 SW 5 10.00 Fair CLR 68 64.4 88% 30.03 0.0
05 05:35 W 6 10.00 Fair CLR 68 64.4 88% 30.03 0.0
05 05:15 W 5 10.00 Fair CLR 68 64.4 88% 30.03 0.0
05 04:55 SW 5 10.00 Fair CLR 68 64.4 88% 30.03 0.0
05 04:35 SW 7 10.00 Fair CLR 68 64.4 88% 30.04 0.0
05 04:15 SW 6 10.00 Fair CLR 68 66.2 94% 30.04 0.0
05 03:55 SW 5 10.00 Fair CLR 68 66.2 94% 30.04 0.0
05 02:55 SW 5 10.00 Fair CLR 68 66.2 94% 30.07 0.0
05 02:35 SW 5 10.00 Fair CLR 68 66.2 94% 30.08 0.0
04 23:35 Calm 10.00 Fair CLR 69.8 66.2 88% 30.12 0.0
04 23:15 N 3 10.00 Fair CLR 69.8 66.2 88% 30.12 0.0
04 21:55 SW 5 10.00 Fair CLR 71.6 66.2 83% 30.07 0.0
04 21:35 S 6 10.00 Fair CLR 73.4 64.4 74% 30.07 0.0
04 21:15 W 3 10.00 Fair CLR 73.4 64.4 74% 30.08 0.0
04 20:15 Calm 10.00 Fair CLR 75.2 64.4 69% 77 30.1 0.0
04 19:55 Calm 10.00 Fair CLR 75.2 64.4 69% 77 30.1 0.0
04 18:55 Calm 10.00 Fair CLR 77 66.2 69% 79 30.1 0.0
04 17:55 NW 9 10.00 Partly Cloudy SCT120 78.8 62.6 58% 80 30.1 0.0
04 17:15 NW 12 G 16 10.00 Partly Cloudy SCT070 SCT100 80.6 68 66% 83 30.1 0.0
04 16:55 W 7 10.00 Fair CLR 82.4 69.8 66% 86 30.1 0.0
04 16:35 W 3 10.00 Fair CLR 82.4 71.6 70% 87 30.1 0.0
04 15:55 W 5 10.00 Partly Cloudy SCT120 86 68 55% 89 30.1 0.0
04 14:55 W 6 10.00 Light Rain SCT031 SCT055 SCT070 86 69.8 59% 91 30.12 0.0
04 14:35 W 6 10.00 Partly Cloudy SCT046 SCT070 SCT075 87.8 69.8 55% 93 30.12 0.0
04 13:55 NW 5 10.00 Mostly Cloudy SCT041 SCT047 BKN120 87.8 68 52% 91 30.14 0.0
04 12:55 W 5 10.00 Partly Cloudy SCT039 SCT049 SCT055 87.8 69.8 55% 93 30.15 0.0
04 12:35 NW 7 10.00 Fair CLR 86 68 55% 89 30.16 0.0
04 11:35 NW 8 10.00 Fair CLR 84.2 69.8 62% 88 30.17 0.0
04 11:15 N 7 10.00 Fair CLR 84.2 69.8 62% 88 30.17 0.0
04 10:55 NW 6 10.00 Fair CLR 82.4 69.8 66% 86 30.17 0.0
04 10:35 W 6 10.00 Fair CLR 82.4 69.8 66% 86 30.17 0.0
04 10:15 W 3 10.00 Fair CLR 80.6 69.8 70% 84 30.17 0.0
04 09:15 W 5 10.00 Fair CLR 73.4 69.8 89% 30.17 0.0
04 08:55 SW 3 10.00 Fair CLR 73.4 68 83% 30.17 0.0
04 07:55 SW 3 10.00 Fair CLR 69.8 68 94% 30.16 0.0
04 06:55 SW 3 10.00 Fair CLR 68 68 100% 30.15 0.0
04 06:35 SW 5 10.00 Fair CLR 68 68 100% 30.14 0.0
04 06:15 SW 3 10.00 Fair CLR 68 68 100% 30.14 0.0
04 05:55 SW 5 7.00 Fair CLR 68 68 100% 30.13 0.0
04 05:35 SW 5 10.00 Fair CLR 69.8 68 94% 30.13 0.0
04 05:15 SW 5 10.00 Fair CLR 69.8 68 94% 30.13 0.0
04 04:55 SW 5 10.00 Fair CLR 69.8 68 94% 30.12 0.0
04 04:15 SW 3 10.00 Fair CLR 69.8 68 94% 30.12 0.0
04 03:55 SW 6 10.00 Fair CLR 69.8 68 94% 30.12 0.0
04 03:35 SW 5 10.00 Fair CLR 69.8 68 94% 30.12 0.0
04 02:35 SW 5 10.00 Fair CLR 71.6 68 88% 30.13 0.0
04 02:15 S 5 10.00 Fair CLR 71.6 68 88% 30.15 0.0
04 01:55 Calm 10.00 Fair CLR 71.6 68 88% 30.15 0.0
04 01:35 S 5 10.00 Fair CLR 71.6 68 88% 30.17 0.0
04 01:15 SW 5 10.00 Fair CLR 71.6 68 88% 30.17 0.0
04 00:55 S 3 10.00 Fair CLR 73.4 68 83% 30.18 0.0
04 00:15 SW 5 10.00 Fair CLR 73.4 68 83% 30.18 0.0
03 23:35 SW 6 10.00 Fair CLR 75.2 68 78% 76 30.17 0.0
03 21:35 S 5 10.00 Fair CLR 78.8 68 70% 81 30.17 0.0
03 21:15 S 3 10.00 Fair CLR 78.8 68 70% 81 30.17 0.0
03 20:55 S 6 10.00 Fair CLR 78.8 68 70% 81 30.16 0.0
03 20:15 SW 5 10.00 Fair CLR 80.6 68 66% 83 30.15 0.0
03 19:55 S 5 10.00 Fair CLR 80.6 68 66% 83 30.14 0.0
03 19:15 S 3 10.00 Fair CLR 82.4 68 62% 85 30.13 0.0
03 18:15 S 3 10.00 Fair CLR 86 68 55% 89 30.13 0.0
03 17:55 S 5 10.00 Fair CLR 86 68 55% 89 30.13 0.0
03 16:55 S 3 10.00 Fair CLR 87.8 64.4 46% 89 30.14 0.0
03 16:35 Calm 10.00 Partly Cloudy SCT050 89.6 64.4 43% 91 30.15 0.0
03 16:15 SW 3 10.00 Mostly Cloudy BKN050 BKN070 89.6 64.4 43% 91 30.16 0.0
03 15:55 Calm 10.00 Overcast OVC050 87.8 66.2 49% 90 30.16 0.0
03 15:15 SW 5 10.00 Partly Cloudy SCT050 SCT070 89.6 68 49% 93 30.17 0.0
03 14:55 Calm 10.00 Fair CLR 87.8 66.2 49% 90 30.17 0.0
03 14:35 Calm 10.00 Fair CLR 86 64.4 49% 87 30.18 0.0
03 14:15 Calm 10.00 Partly Cloudy SCT046 87.8 66.2 49% 90 30.18 0.0
03 13:55 Calm 10.00 Partly Cloudy SCT046 86 66.2 52% 88 30.19 0.0
03 13:15 Calm 10.00 Fair CLR 86 68 55% 89 30.19 0.0
03 12:35 N 6 10.00 Fair CLR 86 68 55% 89 30.21 0.0
03 12:15 N 5 10.00 Fair CLR 84.2 66.2 55% 87 30.21 0.0
03 11:55 N 8 10.00 Fair CLR 84.2 68 58% 87 30.21 0.0
03 11:35 N 9 10.00 Fair CLR 82.4 68 62% 85 30.21 0.0
03 11:15 N 7 10.00 Fair CLR 82.4 69.8 66% 86 30.22 0.0
03 10:55 NW 7 10.00 Fair CLR 82.4 69.8 66% 86 30.22 0.0
03 10:15 N 6 10.00 Fair CLR 80.6 69.8 70% 84 30.21 0.0
03 08:55 Calm 10.00 Fair CLR 73.4 69.8 89% 30.21 0.0
03 08:15 Calm 10.00 Fair CLR 71.6 68 88% 30.22 0.0
03 06:55 W 6 7.00 Fair CLR 68 66.2 94% 30.19 0.0
03 06:15 SW 6 5.00 Fog/Mist CLR 68 66.2 94% 30.19 0.0
03 05:35 S 5 10.00 Fair CLR 68 68 100% 30.18 0.0
03 04:35 Calm 10.00 Fair CLR 69.8 68 94% 30.18 0.0
03 04:15 Calm 10.00 Fair CLR 69.8 68 94% 30.18 0.0
03 03:55 SW 3 10.00 Fair CLR 69.8 68 94% 30.18 0.0
03 03:35 SW 3 10.00 Fair CLR 71.6 68 88% 30.18 0.0
03 03:15 SW 3 10.00 Fair CLR 69.8 68 94% 30.18 0.0
03 02:35 SW 3 10.00 Fair CLR 69.8 68 94% 30.17 0.0
03 02:15 S 5 4.00 Fog/Mist CLR 69.8 68 94% 30.17 0.0
03 01:55 S 5 10.00 Fair CLR 69.8 68 94% 30.17 0.0
03 01:15 SW 3 10.00 Fair CLR 71.6 69.8 94% 30.18 0.0
03 00:35 SW 3 10.00 Fair CLR 71.6 69.8 94% 30.19 0.0
03 00:15 S 3 10.00 Fair CLR 71.6 69.8 94% 30.19 0.0
02 23:35 SW 3 10.00 Fair CLR 73.4 69.8 89% 30.19 0.0
02 23:15 SW 3 10.00 Fair CLR 73.4 69.8 89% 30.19 0.0
02 22:55 SW 5 10.00 Fair CLR 73.4 69.8 89% 30.21 0.0
02 22:35 SW 3 10.00 Fair CLR 75.2 69.8 83% 75 30.21 0.0
02 21:35 S 3 10.00 Fair CLR 77 68 74% 79 30.2 0.0
02 20:55 SE 3 10.00 Fair CLR 78.8 68 70% 81 30.19 0.0
02 20:35 SE 3 10.00 Fair CLR 80.6 68 66% 83 30.19 0.0
02 19:15 NW 5 10.00 Fair CLR 84.2 66.2 55% 87 30.19 0.0
Date Time (edt) Wind (mph) Vis. (mi.) Weather Sky Cond. Air Dwpt Max. Min. Relative Humidity Wind Chill (°F) Heat Index (°F) altimeter (in) sea level (mb) 1 hr 3 hr 6 hr
6 hour
Temperature (ºF) Pressure Precipitation (in)